createdAt,value
2023-01-13T00:02:26.144Z,74.74
2023-01-13T00:05:28.489Z,74.60
2023-01-13T00:08:30.376Z,73.37
2023-01-13T00:11:32.355Z,74.74
2023-01-13T00:14:34.829Z,74.72
2023-01-13T00:17:36.708Z,74.07
2023-01-13T00:20:38.585Z,75.76
2023-01-13T00:23:40.748Z,72.71
2023-01-13T00:26:42.626Z,73.01
2023-01-13T00:29:44.587Z,72.29
2023-01-13T00:32:46.551Z,72.70
2023-01-13T00:35:57.874Z,73.20
2023-01-13T00:38:59.962Z,75.87
2023-01-13T00:42:20.337Z,73.44
2023-01-13T00:45:22.178Z,73.35
2023-01-13T00:48:24.193Z,72.68
2023-01-13T00:51:26.421Z,75.28
2023-01-13T00:54:28.315Z,73.41
2023-01-13T00:57:30.524Z,70.72
2023-01-13T01:00:33.038Z,71.72
2023-01-13T01:03:37.497Z,70.69
2023-01-13T01:06:39.365Z,72.55
2023-01-13T01:09:41.247Z,72.77
2023-01-13T01:12:43.144Z,71.45
2023-01-13T01:15:45.021Z,72.41
2023-01-13T01:18:47.547Z,70.58
2023-01-13T01:21:49.359Z,72.82
2023-01-13T01:24:51.200Z,72.38
2023-01-13T01:27:53.757Z,71.15
2023-01-13T01:30:55.652Z,71.03
2023-01-13T01:33:57.504Z,71.77
2023-01-13T01:36:59.350Z,70.12
2023-01-13T01:40:01.323Z,72.16
2023-01-13T01:43:22.016Z,70.96
2023-01-13T01:46:23.991Z,71.20
2023-01-13T01:49:32.954Z,71.31
2023-01-13T01:52:35.718Z,70.38
2023-01-13T01:55:37.566Z,70.70
2023-01-13T01:58:42.261Z,69.01
2023-01-13T02:01:44.275Z,68.78
2023-01-13T02:04:51.167Z,67.95
2023-01-13T02:07:53.563Z,69.30
2023-01-13T02:10:55.628Z,69.06
2023-01-13T02:13:57.440Z,70.60
2023-01-13T02:17:17.957Z,69.41
2023-01-13T02:20:19.785Z,70.37
2023-01-13T02:23:52.371Z,68.18
2023-01-13T02:26:54.295Z,68.94
2023-01-13T02:30:26.371Z,68.54
2023-01-13T02:33:37.797Z,68.63
2023-01-13T02:36:50.532Z,67.02
2023-01-13T02:39:55.498Z,67.48
2023-01-13T02:43:39.310Z,68.10
2023-01-13T02:46:44.655Z,69.04
2023-01-13T02:50:09.788Z,67.47
2023-01-13T02:53:15.817Z,67.88
2023-01-13T02:56:17.717Z,69.27
2023-01-13T02:59:19.658Z,70.68
2023-01-13T03:02:21.975Z,72.18
2023-01-13T03:05:23.980Z,70.50
2023-01-13T03:08:28.732Z,69.92
2023-01-13T03:11:33.143Z,70.95
2023-01-13T03:14:49.411Z,74.99
2023-01-13T03:18:10.189Z,72.10
2023-01-13T03:21:23.126Z,70.04
2023-01-13T03:24:30.608Z,75.24
2023-01-13T03:27:34.050Z,70.78
2023-01-13T03:30:43.242Z,69.89
2023-01-13T03:33:53.485Z,70.97
2023-01-13T03:36:55.350Z,70.66
2023-01-13T03:40:29.765Z,70.30
2023-01-13T03:43:54.948Z,73.61
2023-01-13T03:46:56.932Z,71.32
2023-01-13T03:50:14.288Z,69.28
2023-01-13T03:53:20.684Z,70.26
2023-01-13T03:56:24.416Z,72.13
2023-01-13T03:59:27.971Z,72.90
2023-01-13T04:02:36.799Z,72.97
2023-01-13T04:05:40.191Z,69.51
2023-01-13T04:08:44.123Z,69.81
2023-01-13T04:11:54.130Z,70.91
2023-01-13T04:14:55.929Z,72.06
2023-01-13T04:18:11.648Z,74.49
2023-01-13T04:21:13.633Z,73.08
2023-01-13T04:24:15.561Z,74.49
2023-01-13T04:27:17.535Z,74.13
2023-01-13T04:30:19.530Z,71.43
2023-01-13T04:33:21.410Z,70.54
2023-01-13T04:36:27.763Z,69.32
2023-01-13T04:39:29.726Z,67.71
2023-01-13T04:42:31.694Z,69.60
2023-01-13T04:45:34.019Z,71.01
2023-01-13T04:48:35.951Z,70.04
2023-01-13T04:51:37.939Z,71.96
2023-01-13T04:54:39.855Z,72.35
2023-01-13T04:57:41.829Z,72.56
2023-01-13T05:00:43.654Z,72.54
2023-01-13T05:03:45.950Z,72.90
2023-01-13T05:06:47.925Z,72.51
2023-01-13T05:09:49.794Z,70.33
2023-01-13T05:13:10.652Z,69.61
2023-01-13T05:16:35.734Z,68.64
2023-01-13T05:19:41.051Z,70.97
2023-01-13T05:23:01.742Z,69.06
2023-01-13T05:26:03.745Z,72.27
2023-01-13T05:29:05.585Z,73.28
2023-01-13T05:32:08.707Z,69.59
2023-01-13T05:35:10.612Z,70.86
2023-01-13T05:38:12.617Z,69.24
2023-01-13T05:41:33.306Z,69.72
2023-01-13T05:44:35.161Z,68.94
2023-01-13T05:47:37.179Z,73.23
2023-01-13T05:50:39.168Z,71.05
2023-01-13T05:53:41.103Z,71.98
2023-01-13T05:56:43.072Z,70.36
2023-01-13T05:59:44.982Z,68.99
2023-01-13T06:02:47.039Z,70.75
2023-01-13T06:05:50.422Z,71.00
2023-01-13T06:08:52.315Z,70.95
2023-01-13T06:11:54.212Z,72.36
2023-01-13T06:14:56.046Z,73.00
2023-01-13T06:17:58.012Z,71.51
2023-01-13T06:20:59.955Z,70.45
2023-01-13T06:24:02.058Z,70.94
2023-01-13T06:27:05.045Z,71.94
2023-01-13T06:30:08.628Z,72.45
2023-01-13T06:33:12.775Z,73.84
2023-01-13T06:36:17.085Z,73.72
2023-01-13T06:39:20.161Z,70.29
2023-01-13T06:42:40.843Z,69.77
2023-01-13T06:45:43.663Z,69.31
2023-01-13T06:48:45.837Z,71.80
2023-01-13T06:51:47.898Z,67.97
2023-01-13T06:54:49.870Z,67.03
2023-01-13T06:57:52.622Z,67.73
2023-01-13T07:00:54.756Z,68.82
2023-01-13T07:03:58.189Z,67.44
2023-01-13T07:07:00.107Z,66.37
2023-01-13T07:10:02.237Z,68.91
2023-01-13T07:13:23.343Z,68.71
2023-01-13T07:16:28.043Z,72.04
2023-01-13T07:19:30.117Z,71.49
2023-01-13T07:22:32.101Z,69.59
2023-01-13T07:25:33.986Z,69.69
2023-01-13T07:28:36.137Z,74.38
2023-01-13T07:31:39.231Z,74.92
2023-01-13T07:34:41.450Z,74.79
2023-01-13T07:37:43.488Z,71.18
2023-01-13T07:40:45.722Z,68.91
2023-01-13T07:43:47.878Z,73.60
2023-01-13T07:46:49.740Z,70.34
2023-01-13T07:49:51.729Z,67.65
2023-01-13T07:52:53.602Z,67.99
2023-01-13T07:55:57.022Z,66.64
2023-01-13T07:58:59.775Z,65.69
2023-01-13T08:02:01.950Z,67.92
2023-01-13T08:05:04.136Z,66.33
2023-01-13T08:08:06.026Z,66.62
2023-01-13T08:11:08.411Z,66.33
2023-01-13T08:14:10.396Z,69.49
2023-01-13T08:17:12.659Z,66.77
2023-01-13T08:20:15.026Z,67.87
2023-01-13T08:23:17.478Z,66.85
2023-01-13T08:26:19.414Z,69.45
2023-01-13T08:29:21.414Z,67.82
2023-01-13T08:32:23.337Z,68.77
2023-01-13T08:35:25.557Z,67.42
2023-01-13T08:38:29.798Z,67.53
2023-01-13T08:41:50.316Z,69.86
2023-01-13T08:44:52.966Z,69.36
2023-01-13T08:47:54.863Z,68.46
2023-01-13T08:51:06.668Z,70.98
2023-01-13T08:54:08.858Z,73.58
2023-01-13T08:57:10.944Z,70.08
2023-01-13T09:00:13.186Z,68.54
2023-01-13T09:03:15.161Z,73.65
2023-01-13T09:06:17.160Z,70.50
2023-01-13T09:09:19.001Z,69.92
2023-01-13T09:12:39.635Z,67.96
2023-01-13T09:15:42.411Z,68.94
2023-01-13T09:18:44.591Z,66.93
2023-01-13T09:21:46.532Z,70.87
2023-01-13T09:24:48.545Z,67.34
2023-01-13T09:27:50.449Z,69.96
2023-01-13T09:30:52.425Z,69.23
2023-01-13T09:34:13.128Z,67.40
2023-01-13T09:37:15.098Z,66.15
2023-01-13T09:40:17.489Z,70.47
2023-01-13T09:43:41.367Z,73.99
2023-01-13T09:46:44.213Z,71.96
2023-01-13T09:49:46.216Z,70.63
2023-01-13T09:52:48.151Z,73.51
2023-01-13T09:55:50.142Z,74.73
2023-01-13T09:58:52.398Z,75.65
2023-01-13T10:01:58.619Z,74.52
2023-01-13T10:05:15.077Z,74.64
2023-01-13T10:08:16.884Z,73.81
2023-01-13T10:11:38.218Z,76.06
2023-01-13T10:14:41.932Z,73.06
2023-01-13T10:17:55.964Z,70.25
2023-01-13T10:21:08.527Z,71.12
2023-01-13T10:24:25.139Z,73.30
2023-01-13T10:27:36.837Z,68.19
2023-01-13T10:30:40.372Z,68.59
2023-01-13T10:33:42.452Z,67.15
2023-01-13T10:36:59.917Z,68.12
2023-01-13T10:40:02.097Z,66.70
2023-01-13T10:43:06.589Z,67.22
2023-01-13T10:46:12.992Z,66.56
2023-01-13T10:49:44.421Z,68.73
2023-01-13T10:52:59.994Z,71.95
2023-01-13T10:56:03.212Z,73.66
2023-01-13T10:59:24.105Z,71.11
2023-01-13T11:02:30.668Z,69.59
2023-01-13T11:05:32.928Z,67.96
2023-01-13T11:08:43.128Z,67.86
2023-01-13T11:11:45.631Z,70.71
2023-01-13T11:14:47.537Z,71.93
2023-01-13T11:17:51.914Z,69.45
2023-01-13T11:20:53.947Z,66.69
2023-01-13T11:24:14.688Z,70.42
2023-01-13T11:27:21.984Z,68.09
2023-01-13T11:30:30.296Z,70.73
2023-01-13T11:33:37.005Z,68.61
2023-01-13T11:36:41.635Z,71.25
2023-01-13T11:40:03.964Z,72.44
2023-01-13T11:43:11.818Z,74.60
2023-01-13T11:46:13.671Z,70.49
2023-01-13T11:49:26.670Z,72.00
2023-01-13T11:52:33.152Z,70.26
2023-01-13T11:55:56.326Z,71.91
2023-01-13T11:59:17.072Z,71.34
2023-01-13T12:02:18.960Z,71.20
2023-01-13T12:05:27.012Z,73.10
2023-01-13T12:08:48.318Z,69.77
2023-01-13T12:12:14.912Z,72.47
2023-01-13T12:15:19.724Z,70.63
2023-01-13T12:18:40.571Z,72.65
2023-01-13T12:21:51.774Z,72.78
2023-01-13T12:25:07.318Z,68.65
2023-01-13T12:28:35.827Z,72.18
2023-01-13T12:31:38.468Z,71.50
2023-01-13T12:34:47.421Z,67.75
2023-01-13T12:37:52.307Z,69.82
2023-01-13T12:41:14.475Z,69.79
2023-01-13T12:44:20.429Z,67.29
2023-01-13T12:47:43.615Z,69.27
2023-01-13T12:50:45.688Z,70.73
2023-01-13T12:53:47.586Z,72.05
2023-01-13T12:56:49.585Z,73.71
2023-01-13T13:00:15.019Z,72.90
2023-01-13T13:03:23.882Z,71.75
2023-01-13T13:06:25.783Z,68.95
2023-01-13T13:09:27.763Z,68.06
2023-01-13T13:12:51.718Z,70.74
2023-01-13T13:15:53.893Z,67.35
2023-01-13T13:19:16.075Z,68.46
2023-01-13T13:22:26.892Z,66.54
2023-01-13T13:25:28.904Z,67.28
2023-01-13T13:28:34.180Z,66.24
2023-01-13T13:31:40.317Z,66.76
2023-01-13T13:34:48.800Z,66.11
2023-01-13T13:38:22.683Z,65.46
2023-01-13T13:41:43.533Z,66.13
2023-01-13T13:45:04.652Z,68.97
2023-01-13T13:48:39.178Z,66.89
2023-01-13T13:51:45.223Z,66.15
2023-01-13T13:54:49.389Z,65.60
2023-01-13T13:57:52.289Z,67.57
2023-01-13T14:00:54.450Z,66.83
2023-01-13T14:04:22.773Z,66.74
2023-01-13T14:07:24.659Z,69.60
2023-01-13T14:10:34.166Z,70.43
2023-01-13T14:13:36.148Z,70.35
2023-01-13T14:16:38.185Z,70.71
2023-01-13T14:19:46.049Z,68.87
2023-01-13T14:22:48.654Z,69.09
2023-01-13T14:25:52.827Z,68.95
2023-01-13T14:28:55.606Z,67.72
2023-01-13T14:31:57.545Z,71.98
2023-01-13T14:34:59.678Z,68.97
2023-01-13T14:38:02.061Z,68.36
2023-01-13T14:41:18.080Z,67.04
2023-01-13T14:44:20.012Z,66.24
2023-01-13T14:47:28.483Z,71.07
2023-01-13T14:50:32.861Z,69.82
2023-01-13T14:53:34.749Z,68.06
2023-01-13T14:56:44.308Z,70.30
2023-01-13T14:59:46.489Z,73.80
2023-01-13T15:02:49.382Z,71.70
2023-01-13T15:05:52.128Z,70.65
2023-01-13T15:08:54.270Z,67.63
2023-01-13T15:11:58.849Z,67.95
2023-01-13T15:15:01.063Z,67.54
2023-01-13T15:18:09.535Z,70.19
2023-01-13T15:21:11.440Z,69.04
2023-01-13T15:24:13.411Z,67.83
2023-01-13T15:27:18.998Z,68.84
2023-01-13T15:30:22.503Z,69.14
2023-01-13T15:33:24.513Z,68.95
2023-01-13T15:36:27.906Z,69.25
2023-01-13T15:39:29.867Z,69.76
2023-01-13T15:42:55.071Z,68.72
2023-01-13T15:46:15.452Z,70.04
2023-01-13T15:49:27.485Z,70.32
2023-01-13T15:52:29.512Z,69.88
2023-01-13T15:55:35.557Z,70.46
2023-01-13T15:58:37.643Z,70.53
2023-01-13T16:01:39.770Z,69.81
2023-01-13T16:04:41.719Z,70.58
2023-01-13T16:07:43.578Z,71.66
2023-01-13T16:10:45.521Z,70.13
2023-01-13T16:13:47.608Z,72.76
2023-01-13T16:16:49.539Z,69.72
2023-01-13T16:19:51.833Z,69.20
2023-01-13T16:22:53.888Z,70.43
2023-01-13T16:25:56.117Z,70.00
2023-01-13T16:28:58.262Z,70.87
2023-01-13T16:32:00.215Z,71.94
2023-01-13T16:35:02.295Z,71.49
2023-01-13T16:38:04.219Z,70.59
2023-01-13T16:41:06.394Z,71.60
2023-01-13T16:44:08.235Z,73.71
2023-01-13T16:47:12.659Z,69.49
2023-01-13T16:50:23.227Z,68.04
2023-01-13T16:53:25.319Z,67.80
2023-01-13T16:56:28.465Z,68.48
2023-01-13T16:59:30.561Z,69.24
2023-01-13T17:02:32.565Z,70.40
2023-01-13T17:05:39.364Z,69.36
2023-01-13T17:08:41.199Z,70.23
2023-01-13T17:11:43.278Z,71.34
2023-01-13T17:14:45.193Z,69.95
2023-01-13T17:17:52.085Z,67.88
2023-01-13T17:20:54.123Z,68.13
2023-01-13T17:23:56.076Z,68.15
2023-01-13T17:26:59.011Z,69.09
2023-01-13T17:30:01.040Z,68.27
2023-01-13T17:33:03.017Z,66.44
2023-01-13T17:36:05.192Z,67.59
2023-01-13T17:39:07.026Z,69.52
2023-01-13T17:42:09.093Z,67.21
2023-01-13T17:45:12.351Z,67.52
2023-01-13T17:48:14.422Z,71.22
2023-01-13T17:51:16.840Z,69.51
2023-01-13T17:54:18.772Z,67.61
2023-01-13T17:57:20.743Z,65.42
2023-01-13T18:00:22.716Z,66.47
2023-01-13T18:03:24.652Z,70.65
2023-01-13T18:06:26.667Z,72.57
2023-01-13T18:09:28.650Z,68.05
2023-01-13T18:12:30.622Z,66.24
2023-01-13T18:15:32.552Z,67.20
2023-01-13T18:18:34.544Z,66.97
2023-01-13T18:21:55.311Z,65.72
2023-01-13T18:25:15.856Z,68.64
2023-01-13T18:28:17.761Z,67.13
2023-01-13T18:31:19.817Z,68.32
2023-01-13T18:34:21.803Z,70.99
2023-01-13T18:37:23.773Z,70.43
2023-01-13T18:40:25.700Z,71.08
2023-01-13T18:43:27.630Z,68.68
2023-01-13T18:46:29.679Z,68.73
2023-01-13T18:49:31.695Z,67.80
2023-01-13T18:52:33.681Z,66.22
2023-01-13T18:55:37.377Z,66.21
2023-01-13T18:58:43.672Z,69.44
2023-01-13T19:01:45.897Z,69.05
2023-01-13T19:04:49.647Z,71.01
2023-01-13T19:07:52.090Z,69.58
2023-01-13T19:10:53.994Z,66.90
2023-01-13T19:13:56.009Z,66.10
2023-01-13T19:16:58.052Z,64.62
2023-01-13T19:20:00.501Z,64.29
2023-01-13T19:23:02.463Z,67.65
2023-01-13T19:26:05.331Z,67.23
2023-01-13T19:29:08.521Z,68.40
2023-01-13T19:32:10.971Z,67.33
2023-01-13T19:35:17.244Z,68.99
2023-01-13T19:38:19.081Z,70.57
2023-01-13T19:41:44.113Z,67.62
2023-01-13T19:45:04.675Z,66.65
2023-01-13T19:48:08.462Z,70.81
2023-01-13T19:51:10.665Z,67.69
2023-01-13T19:54:12.613Z,69.54
2023-01-13T19:57:14.722Z,68.27
2023-01-13T20:00:21.114Z,65.93
2023-01-13T20:03:24.568Z,66.14
2023-01-13T20:06:26.505Z,64.27
2023-01-13T20:09:29.982Z,65.71
2023-01-13T20:12:32.082Z,70.20
2023-01-13T20:15:34.035Z,67.94
2023-01-13T20:18:37.344Z,67.07
2023-01-13T20:21:39.919Z,64.86
2023-01-13T20:24:41.891Z,67.33
2023-01-13T20:27:44.038Z,67.60
2023-01-13T20:30:46.428Z,65.80
2023-01-13T20:33:51.475Z,67.76
2023-01-13T20:36:53.440Z,69.38
2023-01-13T20:39:57.450Z,67.52
2023-01-13T20:42:59.355Z,66.92
2023-01-13T20:46:01.227Z,69.67
2023-01-13T20:49:03.257Z,71.85
2023-01-13T20:52:09.464Z,68.88
2023-01-13T20:55:11.454Z,68.08
2023-01-13T20:58:13.344Z,70.27
2023-01-13T21:01:15.231Z,71.57
2023-01-13T21:04:17.299Z,68.83
2023-01-13T21:07:19.167Z,68.10
2023-01-13T21:10:20.999Z,70.25
2023-01-13T21:13:41.655Z,73.70
2023-01-13T21:16:43.533Z,70.36
2023-01-13T21:19:45.463Z,70.51
2023-01-13T21:22:47.744Z,69.62
2023-01-13T21:25:49.811Z,67.19
2023-01-13T21:28:51.685Z,69.11
2023-01-13T21:31:54.581Z,67.75
2023-01-13T21:34:58.854Z,67.45
2023-01-13T21:38:00.970Z,70.04
2023-01-13T21:41:06.965Z,70.79
2023-01-13T21:44:31.187Z,71.07
2023-01-13T21:47:48.282Z,70.79
2023-01-13T21:50:50.217Z,69.42
2023-01-13T21:53:53.305Z,69.88
2023-01-13T21:56:55.423Z,72.90
2023-01-13T21:59:57.493Z,69.60
2023-01-13T22:03:00.282Z,69.61
2023-01-13T22:06:02.461Z,71.36
2023-01-13T22:09:04.755Z,75.03
2023-01-13T22:12:06.626Z,73.45
2023-01-13T22:15:09.100Z,75.01
2023-01-13T22:18:11.033Z,75.85
2023-01-13T22:21:12.959Z,73.34
2023-01-13T22:24:14.822Z,73.21
2023-01-13T22:27:18.957Z,76.06
2023-01-13T22:30:25.086Z,77.92
2023-01-13T22:33:26.960Z,77.70
2023-01-13T22:36:28.955Z,76.32
2023-01-13T22:39:30.888Z,77.88
2023-01-13T22:42:32.772Z,77.58
2023-01-13T22:45:34.718Z,77.40
2023-01-13T22:48:37.053Z,77.97
2023-01-13T22:51:39.265Z,74.83
2023-01-13T22:54:41.368Z,76.32
2023-01-13T22:57:48.204Z,75.19
2023-01-13T23:00:50.627Z,76.96
2023-01-13T23:03:52.593Z,76.45
2023-01-13T23:06:54.484Z,75.46
2023-01-13T23:09:56.393Z,72.45
2023-01-13T23:12:58.194Z,74.68
2023-01-13T23:16:04.010Z,70.90
2023-01-13T23:19:06.601Z,69.77
2023-01-13T23:22:08.505Z,68.11
2023-01-13T23:25:10.639Z,69.96
2023-01-13T23:28:12.472Z,71.21
2023-01-13T23:31:16.222Z,72.70
2023-01-13T23:34:18.097Z,72.98
2023-01-13T23:37:19.957Z,73.01
2023-01-13T23:40:21.989Z,77.69
2023-01-13T23:43:23.983Z,74.72
2023-01-13T23:46:26.483Z,77.27
2023-01-13T23:49:28.362Z,73.59
2023-01-13T23:52:30.293Z,75.42
2023-01-13T23:55:32.216Z,73.80
2023-01-13T23:58:34.874Z,73.18
